Terminal Aerodrome Forecast
Issued by NWS Sterling, VA

Home | Current Version | Previous Version | Text Only | Print | Product List | Glossary On
Versions: 1 2 3 4 5 6 7 8 9 10 11 12 13 14 15 16 17 18 19 20 21 22 23
000
FTUS41 KLWX 280500
TAFBWI
TAF
KBWI 280538Z 2806/2912 30009KT P6SM SCT070
     FM281300 32012G20KT P6SM SCT100
     FM282300 29005KT P6SM SCT100
     FM290100 00000KT P6SM SCT100
     FM290200 00000KT P6SM BKN090=

USA.gov is the U.S. government's official web portal to all federal, state and local government web resources and services.